sensor_id;sensor_type;location;lat;lon;timestamp;P1;durP1;ratioP1;P2;durP2;ratioP2
3653;SDS011;70277;54.302;10.064;2023-08-24T00:01:22;3.58;;;1.85;;
3653;SDS011;70277;54.302;10.064;2023-08-24T00:03:49;2.10;;;1.60;;
3653;SDS011;70277;54.302;10.064;2023-08-24T00:06:15;4.97;;;1.77;;
3653;SDS011;70277;54.302;10.064;2023-08-24T00:08:43;2.45;;;1.88;;
3653;SDS011;70277;54.302;10.064;2023-08-24T00:11:09;1.95;;;1.50;;
3653;SDS011;70277;54.302;10.064;2023-08-24T00:13:41;2.33;;;1.42;;
3653;SDS011;70277;54.302;10.064;2023-08-24T00:16:12;1.63;;;1.50;;
3653;SDS011;70277;54.302;10.064;2023-08-24T00:18:39;3.92;;;1.45;;
3653;SDS011;70277;54.302;10.064;2023-08-24T00:21:05;3.60;;;1.35;;
3653;SDS011;70277;54.302;10.064;2023-08-24T00:23:33;3.85;;;1.60;;
3653;SDS011;70277;54.302;10.064;2023-08-24T00:26:00;3.53;;;1.60;;
3653;SDS011;70277;54.302;10.064;2023-08-24T00:28:27;4.68;;;1.40;;
3653;SDS011;70277;54.302;10.064;2023-08-24T00:30:53;3.05;;;2.25;;
3653;SDS011;70277;54.302;10.064;2023-08-24T00:33:19;1.73;;;1.63;;
3653;SDS011;70277;54.302;10.064;2023-08-24T00:35:46;3.22;;;1.70;;
3653;SDS011;70277;54.302;10.064;2023-08-24T00:38:12;8.70;;;1.90;;
3653;SDS011;70277;54.302;10.064;2023-08-24T00:40:41;8.25;;;2.42;;
3653;SDS011;70277;54.302;10.064;2023-08-24T00:43:08;3.78;;;1.70;;
3653;SDS011;70277;54.302;10.064;2023-08-24T00:45:34;4.03;;;1.65;;
3653;SDS011;70277;54.302;10.064;2023-08-24T00:48:02;1.77;;;1.52;;
3653;SDS011;70277;54.302;10.064;2023-08-24T00:50:29;5.38;;;1.70;;
3653;SDS011;70277;54.302;10.064;2023-08-24T00:52:56;2.72;;;1.35;;
3653;SDS011;70277;54.302;10.064;2023-08-24T00:55:22;3.38;;;1.98;;
3653;SDS011;70277;54.302;10.064;2023-08-24T00:57:49;2.63;;;2.10;;
3653;SDS011;70277;54.302;10.064;2023-08-24T01:00:17;5.55;;;1.90;;
3653;SDS011;70277;54.302;10.064;2023-08-24T01:02:43;2.10;;;1.70;;
3653;SDS011;70277;54.302;10.064;2023-08-24T01:05:10;1.95;;;1.60;;
3653;SDS011;70277;54.302;10.064;2023-08-24T01:07:37;2.45;;;1.50;;
3653;SDS011;70277;54.302;10.064;2023-08-24T01:10:05;4.40;;;2.30;;
3653;SDS011;70277;54.302;10.064;2023-08-24T01:12:40;3.67;;;1.58;;
3653;SDS011;70277;54.302;10.064;2023-08-24T01:15:20;1.98;;;1.70;;
3653;SDS011;70277;54.302;10.064;2023-08-24T01:18:00;4.47;;;1.98;;
3653;SDS011;70277;54.302;10.064;2023-08-24T01:20:31;2.15;;;1.50;;
3653;SDS011;70277;54.302;10.064;2023-08-24T01:25:54;1.38;;;1.20;;
3653;SDS011;70277;54.302;10.064;2023-08-24T01:28:41;3.67;;;1.63;;
3653;SDS011;70277;54.302;10.064;2023-08-24T01:31:10;5.75;;;1.73;;
3653;SDS011;70277;54.302;10.064;2023-08-24T01:33:36;1.88;;;1.77;;
3653;SDS011;70277;54.302;10.064;2023-08-24T01:36:03;2.08;;;1.48;;
3653;SDS011;70277;54.302;10.064;2023-08-24T01:38:30;1.83;;;1.67;;
3653;SDS011;70277;54.302;10.064;2023-08-24T01:43:29;3.30;;;1.92;;
3653;SDS011;70277;54.302;10.064;2023-08-24T01:46:09;1.88;;;1.77;;
3653;SDS011;70277;54.302;10.064;2023-08-24T01:48:38;1.90;;;1.80;;
3653;SDS011;70277;54.302;10.064;2023-08-24T01:51:06;2.58;;;1.58;;
3653;SDS011;70277;54.302;10.064;2023-08-24T01:53:32;2.05;;;1.50;;
3653;SDS011;70277;54.302;10.064;2023-08-24T01:56:01;2.95;;;1.42;;
3653;SDS011;70277;54.302;10.064;2023-08-24T01:58:28;5.35;;;1.30;;
3653;SDS011;70277;54.302;10.064;2023-08-24T02:00:54;2.63;;;1.40;;
3653;SDS011;70277;54.302;10.064;2023-08-24T02:03:21;4.25;;;1.70;;
3653;SDS011;70277;54.302;10.064;2023-08-24T02:05:47;5.60;;;1.40;;
3653;SDS011;70277;54.302;10.064;2023-08-24T02:08:14;2.92;;;1.30;;
3653;SDS011;70277;54.302;10.064;2023-08-24T02:10:40;2.42;;;1.60;;
3653;SDS011;70277;54.302;10.064;2023-08-24T02:13:07;2.35;;;1.48;;
3653;SDS011;70277;54.302;10.064;2023-08-24T02:15:33;3.47;;;1.40;;
3653;SDS011;70277;54.302;10.064;2023-08-24T02:18:00;4.40;;;1.55;;
3653;SDS011;70277;54.302;10.064;2023-08-24T02:20:26;1.90;;;1.15;;
3653;SDS011;70277;54.302;10.064;2023-08-24T02:22:53;1.55;;;1.23;;
3653;SDS011;70277;54.302;10.064;2023-08-24T02:25:19;4.57;;;1.40;;
3653;SDS011;70277;54.302;10.064;2023-08-24T02:27:46;1.38;;;1.10;;
3653;SDS011;70277;54.302;10.064;2023-08-24T02:30:13;4.20;;;1.45;;
3653;SDS011;70277;54.302;10.064;2023-08-24T02:32:39;1.40;;;1.30;;
3653;SDS011;70277;54.302;10.064;2023-08-24T02:35:06;4.75;;;1.40;;
3653;SDS011;70277;54.302;10.064;2023-08-24T02:37:33;5.18;;;1.80;;
3653;SDS011;70277;54.302;10.064;2023-08-24T02:40:00;4.55;;;1.90;;
3653;SDS011;70277;54.302;10.064;2023-08-24T02:42:27;2.42;;;1.83;;
3653;SDS011;70277;54.302;10.064;2023-08-24T02:44:56;5.28;;;1.75;;
3653;SDS011;70277;54.302;10.064;2023-08-24T02:47:22;3.45;;;2.08;;
3653;SDS011;70277;54.302;10.064;2023-08-24T02:49:49;3.42;;;1.95;;
3653;SDS011;70277;54.302;10.064;2023-08-24T02:52:15;5.03;;;1.70;;
3653;SDS011;70277;54.302;10.064;2023-08-24T02:54:42;3.92;;;1.60;;
3653;SDS011;70277;54.302;10.064;2023-08-24T02:57:08;4.90;;;1.40;;
3653;SDS011;70277;54.302;10.064;2023-08-24T02:59:35;2.40;;;1.48;;
3653;SDS011;70277;54.302;10.064;2023-08-24T03:02:02;3.55;;;1.88;;
3653;SDS011;70277;54.302;10.064;2023-08-24T03:04:28;4.50;;;1.30;;
3653;SDS011;70277;54.302;10.064;2023-08-24T03:06:55;11.75;;;1.60;;
3653;SDS011;70277;54.302;10.064;2023-08-24T03:09:21;4.32;;;1.90;;
3653;SDS011;70277;54.302;10.064;2023-08-24T03:11:48;3.50;;;2.03;;
3653;SDS011;70277;54.302;10.064;2023-08-24T03:14:15;3.70;;;1.90;;
3653;SDS011;70277;54.302;10.064;2023-08-24T03:16:41;2.78;;;1.63;;
3653;SDS011;70277;54.302;10.064;2023-08-24T03:19:08;7.85;;;1.77;;
3653;SDS011;70277;54.302;10.064;2023-08-24T03:21:34;5.65;;;1.63;;
3653;SDS011;70277;54.302;10.064;2023-08-24T03:24:01;2.45;;;1.70;;
3653;SDS011;70277;54.302;10.064;2023-08-24T03:26:30;1.83;;;1.60;;
3653;SDS011;70277;54.302;10.064;2023-08-24T03:28:57;1.80;;;1.52;;
3653;SDS011;70277;54.302;10.064;2023-08-24T03:31:23;2.63;;;1.70;;
3653;SDS011;70277;54.302;10.064;2023-08-24T03:33:52;2.38;;;1.88;;
3653;SDS011;70277;54.302;10.064;2023-08-24T03:36:18;4.78;;;1.70;;
3653;SDS011;70277;54.302;10.064;2023-08-24T03:38:45;3.35;;;1.75;;
3653;SDS011;70277;54.302;10.064;2023-08-24T03:41:11;6.05;;;2.28;;
3653;SDS011;70277;54.302;10.064;2023-08-24T03:43:38;2.20;;;1.60;;
3653;SDS011;70277;54.302;10.064;2023-08-24T03:46:04;2.40;;;1.95;;
3653;SDS011;70277;54.302;10.064;2023-08-24T03:48:32;5.50;;;1.60;;
3653;SDS011;70277;54.302;10.064;2023-08-24T03:50:59;6.00;;;2.00;;
3653;SDS011;70277;54.302;10.064;2023-08-24T03:53:25;4.93;;;1.77;;
3653;SDS011;70277;54.302;10.064;2023-08-24T03:55:52;2.13;;;2.00;;
3653;SDS011;70277;54.302;10.064;2023-08-24T03:58:20;2.72;;;1.80;;
3653;SDS011;70277;54.302;10.064;2023-08-24T04:00:46;5.75;;;2.00;;
3653;SDS011;70277;54.302;10.064;2023-08-24T04:03:13;3.10;;;2.00;;
3653;SDS011;70277;54.302;10.064;2023-08-24T04:05:40;3.20;;;2.13;;
3653;SDS011;70277;54.302;10.064;2023-08-24T04:08:06;2.65;;;2.10;;
3653;SDS011;70277;54.302;10.064;2023-08-24T04:10:33;7.32;;;1.77;;
3653;SDS011;70277;54.302;10.064;2023-08-24T04:13:00;3.28;;;1.58;;
3653;SDS011;70277;54.302;10.064;2023-08-24T04:15:26;3.17;;;1.75;;
3653;SDS011;70277;54.302;10.064;2023-08-24T04:17:53;6.32;;;2.58;;
3653;SDS011;70277;54.302;10.064;2023-08-24T04:20:20;4.88;;;2.20;;
3653;SDS011;70277;54.302;10.064;2023-08-24T04:22:47;3.33;;;3.03;;
3653;SDS011;70277;54.302;10.064;2023-08-24T04:25:13;5.28;;;2.50;;
3653;SDS011;70277;54.302;10.064;2023-08-24T04:27:40;7.53;;;2.40;;
3653;SDS011;70277;54.302;10.064;2023-08-24T04:30:07;5.90;;;3.15;;
3653;SDS011;70277;54.302;10.064;2023-08-24T04:32:37;4.22;;;2.40;;
3653;SDS011;70277;54.302;10.064;2023-08-24T04:35:04;2.60;;;2.40;;
3653;SDS011;70277;54.302;10.064;2023-08-24T04:37:31;2.35;;;2.15;;
3653;SDS011;70277;54.302;10.064;2023-08-24T04:39:57;5.80;;;2.13;;
3653;SDS011;70277;54.302;10.064;2023-08-24T04:42:24;4.53;;;2.05;;
3653;SDS011;70277;54.302;10.064;2023-08-24T04:44:51;2.00;;;1.80;;
3653;SDS011;70277;54.302;10.064;2023-08-24T04:47:17;2.45;;;1.65;;
3653;SDS011;70277;54.302;10.064;2023-08-24T04:49:44;3.28;;;2.40;;
3653;SDS011;70277;54.302;10.064;2023-08-24T04:52:10;2.90;;;2.50;;
3653;SDS011;70277;54.302;10.064;2023-08-24T04:54:37;2.38;;;2.00;;
3653;SDS011;70277;54.302;10.064;2023-08-24T04:57:03;4.95;;;2.15;;
3653;SDS011;70277;54.302;10.064;2023-08-24T04:59:30;4.10;;;2.05;;
3653;SDS011;70277;54.302;10.064;2023-08-24T05:01:56;4.38;;;2.33;;
3653;SDS011;70277;54.302;10.064;2023-08-24T05:04:23;2.75;;;2.55;;
3653;SDS011;70277;54.302;10.064;2023-08-24T05:06:49;2.38;;;2.17;;
3653;SDS011;70277;54.302;10.064;2023-08-24T05:09:16;4.20;;;3.22;;
3653;SDS011;70277;54.302;10.064;2023-08-24T05:11:43;3.35;;;3.10;;
3653;SDS011;70277;54.302;10.064;2023-08-24T05:14:10;3.60;;;3.30;;
3653;SDS011;70277;54.302;10.064;2023-08-24T05:16:36;4.22;;;3.85;;
3653;SDS011;70277;54.302;10.064;2023-08-24T05:19:03;9.85;;;3.90;;
3653;SDS011;70277;54.302;10.064;2023-08-24T05:21:29;4.80;;;3.80;;
3653;SDS011;70277;54.302;10.064;2023-08-24T05:23:56;5.85;;;3.90;;
3653;SDS011;70277;54.302;10.064;2023-08-24T05:26:22;4.13;;;3.70;;
3653;SDS011;70277;54.302;10.064;2023-08-24T05:28:52;6.07;;;4.35;;
3653;SDS011;70277;54.302;10.064;2023-08-24T05:31:18;7.82;;;4.55;;
3653;SDS011;70277;54.302;10.064;2023-08-24T05:33:47;9.15;;;5.32;;
3653;SDS011;70277;54.302;10.064;2023-08-24T05:36:13;9.93;;;5.57;;
3653;SDS011;70277;54.302;10.064;2023-08-24T05:38:40;9.27;;;4.68;;
3653;SDS011;70277;54.302;10.064;2023-08-24T05:41:29;10.60;;;4.60;;
3653;SDS011;70277;54.302;10.064;2023-08-24T05:43:55;9.23;;;4.93;;
3653;SDS011;70277;54.302;10.064;2023-08-24T05:46:23;7.28;;;4.35;;
3653;SDS011;70277;54.302;10.064;2023-08-24T05:48:49;9.95;;;4.93;;
3653;SDS011;70277;54.302;10.064;2023-08-24T05:51:16;4.60;;;4.20;;
3653;SDS011;70277;54.302;10.064;2023-08-24T05:53:42;4.45;;;4.05;;
3653;SDS011;70277;54.302;10.064;2023-08-24T05:56:09;4.10;;;3.78;;
3653;SDS011;70277;54.302;10.064;2023-08-24T05:58:35;4.70;;;4.30;;
3653;SDS011;70277;54.302;10.064;2023-08-24T06:01:02;6.00;;;3.70;;
3653;SDS011;70277;54.302;10.064;2023-08-24T06:03:28;6.85;;;4.07;;
3653;SDS011;70277;54.302;10.064;2023-08-24T06:06:00;7.15;;;4.65;;
3653;SDS011;70277;54.302;10.064;2023-08-24T06:08:28;7.93;;;4.75;;
3653;SDS011;70277;54.302;10.064;2023-08-24T06:10:55;8.98;;;4.55;;
3653;SDS011;70277;54.302;10.064;2023-08-24T06:13:22;8.10;;;3.88;;
3653;SDS011;70277;54.302;10.064;2023-08-24T06:15:48;7.97;;;3.60;;
3653;SDS011;70277;54.302;10.064;2023-08-24T06:18:15;6.05;;;3.63;;
3653;SDS011;70277;54.302;10.064;2023-08-24T06:20:42;6.07;;;4.00;;
3653;SDS011;70277;54.302;10.064;2023-08-24T06:23:08;8.80;;;3.38;;
3653;SDS011;70277;54.302;10.064;2023-08-24T06:25:35;8.32;;;3.65;;
3653;SDS011;70277;54.302;10.064;2023-08-24T06:28:01;7.35;;;3.90;;
3653;SDS011;70277;54.302;10.064;2023-08-24T06:30:30;6.18;;;3.63;;
3653;SDS011;70277;54.302;10.064;2023-08-24T06:33:03;7.85;;;3.60;;
3653;SDS011;70277;54.302;10.064;2023-08-24T06:35:30;7.82;;;3.10;;
3653;SDS011;70277;54.302;10.064;2023-08-24T06:37:56;4.85;;;3.00;;
3653;SDS011;70277;54.302;10.064;2023-08-24T06:40:23;8.68;;;2.70;;
3653;SDS011;70277;54.302;10.064;2023-08-24T06:42:49;6.93;;;2.42;;
3653;SDS011;70277;54.302;10.064;2023-08-24T06:45:16;5.18;;;2.05;;
3653;SDS011;70277;54.302;10.064;2023-08-24T06:47:44;4.38;;;1.83;;
3653;SDS011;70277;54.302;10.064;2023-08-24T06:50:11;6.07;;;2.30;;
3653;SDS011;70277;54.302;10.064;2023-08-24T06:52:38;4.47;;;1.80;;
3653;SDS011;70277;54.302;10.064;2023-08-24T06:55:05;4.20;;;1.73;;
3653;SDS011;70277;54.302;10.064;2023-08-24T06:57:31;4.00;;;1.55;;
3653;SDS011;70277;54.302;10.064;2023-08-24T06:59:58;5.45;;;1.70;;
3653;SDS011;70277;54.302;10.064;2023-08-24T07:02:24;4.13;;;1.17;;
3653;SDS011;70277;54.302;10.064;2023-08-24T07:04:51;2.72;;;1.30;;
3653;SDS011;70277;54.302;10.064;2023-08-24T07:07:17;3.35;;;1.13;;
3653;SDS011;70277;54.302;10.064;2023-08-24T07:09:44;6.07;;;1.10;;
3653;SDS011;70277;54.302;10.064;2023-08-24T07:12:10;4.55;;;1.15;;
3653;SDS011;70277;54.302;10.064;2023-08-24T07:14:37;4.57;;;1.13;;
3653;SDS011;70277;54.302;10.064;2023-08-24T07:17:03;6.65;;;1.20;;
3653;SDS011;70277;54.302;10.064;2023-08-24T07:19:30;8.05;;;1.70;;
3653;SDS011;70277;54.302;10.064;2023-08-24T07:21:57;3.83;;;1.10;;
3653;SDS011;70277;54.302;10.064;2023-08-24T07:24:23;2.83;;;1.20;;
3653;SDS011;70277;54.302;10.064;2023-08-24T07:27:09;4.88;;;1.40;;
3653;SDS011;70277;54.302;10.064;2023-08-24T07:29:35;5.07;;;1.40;;
3653;SDS011;70277;54.302;10.064;2023-08-24T07:32:02;5.22;;;1.25;;
3653;SDS011;70277;54.302;10.064;2023-08-24T07:34:29;5.80;;;1.27;;
3653;SDS011;70277;54.302;10.064;2023-08-24T07:36:56;6.55;;;1.75;;
3653;SDS011;70277;54.302;10.064;2023-08-24T07:39:22;6.95;;;1.20;;
3653;SDS011;70277;54.302;10.064;2023-08-24T07:41:49;2.88;;;1.02;;
3653;SDS011;70277;54.302;10.064;2023-08-24T07:44:15;1.35;;;1.00;;
3653;SDS011;70277;54.302;10.064;2023-08-24T07:46:41;7.72;;;1.65;;
3653;SDS011;70277;54.302;10.064;2023-08-24T07:49:08;4.35;;;1.23;;
3653;SDS011;70277;54.302;10.064;2023-08-24T07:51:35;9.95;;;1.63;;
3653;SDS011;70277;54.302;10.064;2023-08-24T07:54:01;5.88;;;1.40;;
3653;SDS011;70277;54.302;10.064;2023-08-24T07:56:30;6.85;;;1.20;;
3653;SDS011;70277;54.302;10.064;2023-08-24T07:58:57;3.67;;;1.10;;
3653;SDS011;70277;54.302;10.064;2023-08-24T08:01:23;5.07;;;1.60;;
3653;SDS011;70277;54.302;10.064;2023-08-24T08:03:50;8.50;;;1.27;;
3653;SDS011;70277;54.302;10.064;2023-08-24T08:06:17;5.13;;;1.10;;
3653;SDS011;70277;54.302;10.064;2023-08-24T08:08:43;4.78;;;1.00;;
3653;SDS011;70277;54.302;10.064;2023-08-24T08:11:11;5.35;;;1.55;;
3653;SDS011;70277;54.302;10.064;2023-08-24T08:13:38;6.10;;;1.35;;
3653;SDS011;70277;54.302;10.064;2023-08-24T08:16:05;6.18;;;1.05;;
3653;SDS011;70277;54.302;10.064;2023-08-24T08:18:33;4.38;;;0.95;;
3653;SDS011;70277;54.302;10.064;2023-08-24T08:21:00;3.83;;;0.98;;
3653;SDS011;70277;54.302;10.064;2023-08-24T08:23:29;4.70;;;0.95;;
3653;SDS011;70277;54.302;10.064;2023-08-24T08:25:56;2.75;;;1.00;;
3653;SDS011;70277;54.302;10.064;2023-08-24T08:28:23;4.22;;;1.10;;
3653;SDS011;70277;54.302;10.064;2023-08-24T08:30:50;4.85;;;1.10;;
3653;SDS011;70277;54.302;10.064;2023-08-24T08:33:16;6.22;;;1.35;;
3653;SDS011;70277;54.302;10.064;2023-08-24T08:35:43;5.22;;;1.17;;
3653;SDS011;70277;54.302;10.064;2023-08-24T08:38:10;2.78;;;0.95;;
3653;SDS011;70277;54.302;10.064;2023-08-24T08:40:37;4.50;;;1.00;;
3653;SDS011;70277;54.302;10.064;2023-08-24T08:43:03;4.53;;;0.95;;
3653;SDS011;70277;54.302;10.064;2023-08-24T08:45:31;4.03;;;0.85;;
3653;SDS011;70277;54.302;10.064;2023-08-24T08:48:01;3.40;;;1.10;;
3653;SDS011;70277;54.302;10.064;2023-08-24T08:50:30;3.08;;;1.10;;
3653;SDS011;70277;54.302;10.064;2023-08-24T08:52:59;3.42;;;1.08;;
3653;SDS011;70277;54.302;10.064;2023-08-24T08:55:25;3.45;;;1.15;;
3653;SDS011;70277;54.302;10.064;2023-08-24T08:57:53;3.85;;;1.15;;
3653;SDS011;70277;54.302;10.064;2023-08-24T09:00:24;6.10;;;1.00;;
3653;SDS011;70277;54.302;10.064;2023-08-24T09:02:52;4.78;;;0.90;;
3653;SDS011;70277;54.302;10.064;2023-08-24T09:05:20;2.22;;;0.98;;
3653;SDS011;70277;54.302;10.064;2023-08-24T09:07:47;5.75;;;1.10;;
3653;SDS011;70277;54.302;10.064;2023-08-24T09:10:15;2.75;;;0.95;;
3653;SDS011;70277;54.302;10.064;2023-08-24T09:12:41;2.33;;;1.20;;
3653;SDS011;70277;54.302;10.064;2023-08-24T09:15:08;5.38;;;1.30;;
3653;SDS011;70277;54.302;10.064;2023-08-24T09:17:35;2.92;;;1.10;;
3653;SDS011;70277;54.302;10.064;2023-08-24T09:20:05;3.92;;;1.00;;
3653;SDS011;70277;54.302;10.064;2023-08-24T09:22:36;2.00;;;1.00;;
3653;SDS011;70277;54.302;10.064;2023-08-24T09:25:10;3.50;;;1.05;;
3653;SDS011;70277;54.302;10.064;2023-08-24T09:30:03;2.90;;;1.15;;
3653;SDS011;70277;54.302;10.064;2023-08-24T09:32:32;2.95;;;1.10;;
3653;SDS011;70277;54.302;10.064;2023-08-24T09:35:02;3.72;;;0.80;;
3653;SDS011;70277;54.302;10.064;2023-08-24T09:37:35;4.18;;;1.20;;
3653;SDS011;70277;54.302;10.064;2023-08-24T09:40:04;5.60;;;1.23;;
3653;SDS011;70277;54.302;10.064;2023-08-24T09:42:38;3.00;;;1.20;;
3653;SDS011;70277;54.302;10.064;2023-08-24T09:45:06;1.60;;;0.93;;
3653;SDS011;70277;54.302;10.064;2023-08-24T09:47:36;1.63;;;0.98;;
3653;SDS011;70277;54.302;10.064;2023-08-24T09:50:03;4.57;;;1.40;;
3653;SDS011;70277;54.302;10.064;2023-08-24T09:52:31;7.25;;;1.25;;
3653;SDS011;70277;54.302;10.064;2023-08-24T09:55:02;2.67;;;1.05;;
3653;SDS011;70277;54.302;10.064;2023-08-24T09:57:33;3.05;;;1.08;;
3653;SDS011;70277;54.302;10.064;2023-08-24T10:00:08;6.18;;;1.25;;
3653;SDS011;70277;54.302;10.064;2023-08-24T10:02:37;3.63;;;1.20;;
3653;SDS011;70277;54.302;10.064;2023-08-24T10:05:16;2.58;;;0.85;;
3653;SDS011;70277;54.302;10.064;2023-08-24T10:08:06;3.42;;;1.25;;
3653;SDS011;70277;54.302;10.064;2023-08-24T10:10:34;2.42;;;1.25;;
3653;SDS011;70277;54.302;10.064;2023-08-24T10:13:11;1.83;;;1.02;;
3653;SDS011;70277;54.302;10.064;2023-08-24T10:15:48;3.63;;;1.20;;
3653;SDS011;70277;54.302;10.064;2023-08-24T10:18:15;3.83;;;1.00;;
3653;SDS011;70277;54.302;10.064;2023-08-24T10:20:44;5.68;;;1.30;;
3653;SDS011;70277;54.302;10.064;2023-08-24T10:23:12;1.35;;;1.10;;
3653;SDS011;70277;54.302;10.064;2023-08-24T10:25:41;4.70;;;1.23;;
3653;SDS011;70277;54.302;10.064;2023-08-24T10:28:08;2.35;;;1.17;;
3653;SDS011;70277;54.302;10.064;2023-08-24T10:30:38;5.68;;;1.20;;
3653;SDS011;70277;54.302;10.064;2023-08-24T10:33:05;4.18;;;1.40;;
3653;SDS011;70277;54.302;10.064;2023-08-24T10:35:32;2.22;;;1.10;;
3653;SDS011;70277;54.302;10.064;2023-08-24T10:37:59;4.28;;;1.10;;
3653;SDS011;70277;54.302;10.064;2023-08-24T10:40:33;2.65;;;1.30;;
3653;SDS011;70277;54.302;10.064;2023-08-24T10:43:03;3.03;;;1.15;;
3653;SDS011;70277;54.302;10.064;2023-08-24T10:45:53;1.63;;;1.17;;
3653;SDS011;70277;54.302;10.064;2023-08-24T10:48:28;11.07;;;1.23;;
3653;SDS011;70277;54.302;10.064;2023-08-24T10:53:57;2.53;;;1.10;;
3653;SDS011;70277;54.302;10.064;2023-08-24T10:56:34;2.70;;;0.98;;
3653;SDS011;70277;54.302;10.064;2023-08-24T11:01:41;9.07;;;1.48;;
3653;SDS011;70277;54.302;10.064;2023-08-24T11:04:10;3.87;;;1.20;;
3653;SDS011;70277;54.302;10.064;2023-08-24T11:06:56;2.45;;;1.08;;
3653;SDS011;70277;54.302;10.064;2023-08-24T11:09:25;5.47;;;1.33;;
3653;SDS011;70277;54.302;10.064;2023-08-24T11:12:09;5.28;;;1.27;;
3653;SDS011;70277;54.302;10.064;2023-08-24T11:14:37;5.15;;;1.08;;
3653;SDS011;70277;54.302;10.064;2023-08-24T11:19:48;4.63;;;1.30;;
3653;SDS011;70277;54.302;10.064;2023-08-24T11:22:18;2.65;;;1.42;;
3653;SDS011;70277;54.302;10.064;2023-08-24T11:24:45;2.70;;;1.20;;
3653;SDS011;70277;54.302;10.064;2023-08-24T11:27:12;2.40;;;1.00;;
3653;SDS011;70277;54.302;10.064;2023-08-24T11:29:38;5.30;;;1.00;;
3653;SDS011;70277;54.302;10.064;2023-08-24T11:32:05;6.28;;;1.38;;
3653;SDS011;70277;54.302;10.064;2023-08-24T11:34:33;3.50;;;1.10;;
3653;SDS011;70277;54.302;10.064;2023-08-24T11:37:00;3.60;;;1.25;;
3653;SDS011;70277;54.302;10.064;2023-08-24T11:39:27;5.97;;;1.13;;
3653;SDS011;70277;54.302;10.064;2023-08-24T11:42:01;1.70;;;1.23;;
3653;SDS011;70277;54.302;10.064;2023-08-24T11:44:29;2.42;;;1.13;;
3653;SDS011;70277;54.302;10.064;2023-08-24T11:47:10;4.43;;;1.30;;
3653;SDS011;70277;54.302;10.064;2023-08-24T11:49:36;3.25;;;1.10;;
3653;SDS011;70277;54.302;10.064;2023-08-24T11:52:03;2.58;;;1.30;;
3653;SDS011;70277;54.302;10.064;2023-08-24T11:54:33;4.28;;;0.93;;
3653;SDS011;70277;54.302;10.064;2023-08-24T11:56:59;5.72;;;1.30;;
3653;SDS011;70277;54.302;10.064;2023-08-24T11:59:26;2.42;;;1.20;;
3653;SDS011;70277;54.302;10.064;2023-08-24T12:01:52;4.95;;;1.40;;
3653;SDS011;70277;54.302;10.064;2023-08-24T12:04:19;7.13;;;1.25;;
3653;SDS011;70277;54.302;10.064;2023-08-24T12:06:46;3.55;;;1.40;;
3653;SDS011;70277;54.302;10.064;2023-08-24T12:09:13;5.15;;;1.27;;
3653;SDS011;70277;54.302;10.064;2023-08-24T12:11:39;5.50;;;1.20;;
3653;SDS011;70277;54.302;10.064;2023-08-24T12:14:06;4.00;;;1.58;;
3653;SDS011;70277;54.302;10.064;2023-08-24T12:16:36;3.63;;;1.50;;
3653;SDS011;70277;54.302;10.064;2023-08-24T12:19:06;11.77;;;1.60;;
3653;SDS011;70277;54.302;10.064;2023-08-24T12:21:33;4.15;;;1.20;;
3653;SDS011;70277;54.302;10.064;2023-08-24T12:24:01;7.03;;;1.35;;
3653;SDS011;70277;54.302;10.064;2023-08-24T12:26:35;5.75;;;1.52;;
3653;SDS011;70277;54.302;10.064;2023-08-24T12:29:05;8.95;;;1.48;;
3653;SDS011;70277;54.302;10.064;2023-08-24T12:31:32;2.45;;;1.20;;
3653;SDS011;70277;54.302;10.064;2023-08-24T12:34:03;6.50;;;1.10;;
3653;SDS011;70277;54.302;10.064;2023-08-24T12:36:35;2.38;;;1.30;;
3653;SDS011;70277;54.302;10.064;2023-08-24T12:39:03;2.30;;;1.10;;
3653;SDS011;70277;54.302;10.064;2023-08-24T12:41:32;2.47;;;1.38;;
3653;SDS011;70277;54.302;10.064;2023-08-24T12:43:59;2.45;;;1.30;;
3653;SDS011;70277;54.302;10.064;2023-08-24T12:46:31;3.95;;;1.10;;
3653;SDS011;70277;54.302;10.064;2023-08-24T12:48:58;1.33;;;1.17;;
3653;SDS011;70277;54.302;10.064;2023-08-24T12:51:25;4.07;;;1.27;;
3653;SDS011;70277;54.302;10.064;2023-08-24T12:53:51;1.80;;;1.20;;
3653;SDS011;70277;54.302;10.064;2023-08-24T12:56:18;2.25;;;1.17;;
3653;SDS011;70277;54.302;10.064;2023-08-24T12:58:44;3.03;;;1.10;;
3653;SDS011;70277;54.302;10.064;2023-08-24T13:01:11;3.60;;;1.27;;
3653;SDS011;70277;54.302;10.064;2023-08-24T13:03:38;5.70;;;1.23;;
3653;SDS011;70277;54.302;10.064;2023-08-24T13:06:08;3.13;;;1.30;;
3653;SDS011;70277;54.302;10.064;2023-08-24T13:08:49;2.95;;;1.30;;
3653;SDS011;70277;54.302;10.064;2023-08-24T13:11:16;4.20;;;1.35;;
3653;SDS011;70277;54.302;10.064;2023-08-24T13:13:42;3.50;;;0.98;;
3653;SDS011;70277;54.302;10.064;2023-08-24T13:16:12;3.30;;;1.20;;
3653;SDS011;70277;54.302;10.064;2023-08-24T13:18:39;5.55;;;1.13;;
3653;SDS011;70277;54.302;10.064;2023-08-24T13:21:05;6.32;;;1.20;;
3653;SDS011;70277;54.302;10.064;2023-08-24T13:23:31;1.90;;;1.20;;
3653;SDS011;70277;54.302;10.064;2023-08-24T13:25:59;2.63;;;1.20;;
3653;SDS011;70277;54.302;10.064;2023-08-24T13:28:26;1.60;;;0.90;;
3653;SDS011;70277;54.302;10.064;2023-08-24T13:30:54;7.90;;;1.13;;
3653;SDS011;70277;54.302;10.064;2023-08-24T13:33:20;2.90;;;1.20;;
3653;SDS011;70277;54.302;10.064;2023-08-24T13:35:47;3.60;;;1.20;;
3653;SDS011;70277;54.302;10.064;2023-08-24T13:38:13;4.70;;;1.17;;
3653;SDS011;70277;54.302;10.064;2023-08-24T13:40:40;3.45;;;1.20;;
3653;SDS011;70277;54.302;10.064;2023-08-24T13:43:06;4.50;;;1.23;;
3653;SDS011;70277;54.302;10.064;2023-08-24T13:45:33;3.65;;;1.23;;
3653;SDS011;70277;54.302;10.064;2023-08-24T13:48:01;8.02;;;1.45;;
3653;SDS011;70277;54.302;10.064;2023-08-24T13:50:28;1.63;;;1.23;;
3653;SDS011;70277;54.302;10.064;2023-08-24T13:52:55;2.05;;;1.00;;
3653;SDS011;70277;54.302;10.064;2023-08-24T13:55:22;6.32;;;1.27;;
3653;SDS011;70277;54.302;10.064;2023-08-24T13:57:48;2.38;;;1.42;;
3653;SDS011;70277;54.302;10.064;2023-08-24T14:00:16;2.00;;;1.05;;
3653;SDS011;70277;54.302;10.064;2023-08-24T14:02:42;1.40;;;1.30;;
3653;SDS011;70277;54.302;10.064;2023-08-24T14:05:11;11.45;;;1.20;;
3653;SDS011;70277;54.302;10.064;2023-08-24T14:07:39;8.27;;;1.33;;
3653;SDS011;70277;54.302;10.064;2023-08-24T14:10:05;3.72;;;1.38;;
3653;SDS011;70277;54.302;10.064;2023-08-24T14:12:34;4.50;;;1.10;;
3653;SDS011;70277;54.302;10.064;2023-08-24T14:15:01;3.78;;;1.10;;
3653;SDS011;70277;54.302;10.064;2023-08-24T14:17:27;3.72;;;1.30;;
3653;SDS011;70277;54.302;10.064;2023-08-24T14:19:54;3.30;;;1.15;;
3653;SDS011;70277;54.302;10.064;2023-08-24T14:22:21;2.97;;;1.20;;
3653;SDS011;70277;54.302;10.064;2023-08-24T14:24:47;3.00;;;1.13;;
3653;SDS011;70277;54.302;10.064;2023-08-24T14:27:14;3.75;;;1.00;;
3653;SDS011;70277;54.302;10.064;2023-08-24T14:29:40;7.63;;;1.10;;
3653;SDS011;70277;54.302;10.064;2023-08-24T14:32:07;2.70;;;1.02;;
3653;SDS011;70277;54.302;10.064;2023-08-24T14:34:33;2.95;;;1.20;;
3653;SDS011;70277;54.302;10.064;2023-08-24T14:37:00;3.72;;;1.20;;
3653;SDS011;70277;54.302;10.064;2023-08-24T14:39:26;10.40;;;1.20;;
3653;SDS011;70277;54.302;10.064;2023-08-24T14:41:53;1.95;;;1.00;;
3653;SDS011;70277;54.302;10.064;2023-08-24T14:44:20;6.80;;;1.08;;
3653;SDS011;70277;54.302;10.064;2023-08-24T14:46:46;2.17;;;1.10;;
3653;SDS011;70277;54.302;10.064;2023-08-24T14:49:13;2.80;;;1.15;;
3653;SDS011;70277;54.302;10.064;2023-08-24T14:51:45;0.85;;;0.70;;
3653;SDS011;70277;54.302;10.064;2023-08-24T14:54:12;1.58;;;0.88;;
3653;SDS011;70277;54.302;10.064;2023-08-24T14:56:40;3.83;;;1.25;;
3653;SDS011;70277;54.302;10.064;2023-08-24T14:59:07;6.35;;;1.30;;
3653;SDS011;70277;54.302;10.064;2023-08-24T15:01:33;2.13;;;1.00;;
3653;SDS011;70277;54.302;10.064;2023-08-24T15:04:00;8.00;;;1.40;;
3653;SDS011;70277;54.302;10.064;2023-08-24T15:06:27;4.35;;;1.08;;
3653;SDS011;70277;54.302;10.064;2023-08-24T15:08:53;1.83;;;1.10;;